createdAt,value
2023-03-29T00:00:32.965Z,27.6959
2023-03-29T00:01:36.209Z,27.7071
2023-03-29T00:02:35.210Z,27.6995
2023-03-29T00:03:36.381Z,27.6749
2023-03-29T00:04:37.455Z,27.6996
2023-03-29T00:05:38.487Z,27.7023
2023-03-29T00:06:39.603Z,27.6908
2023-03-29T00:07:40.698Z,27.6862
2023-03-29T00:08:41.785Z,27.6718
2023-03-29T00:09:43.337Z,27.6654
2023-03-29T00:10:43.973Z,27.6637
2023-03-29T00:11:45.103Z,27.6726
2023-03-29T00:12:46.190Z,27.6749
2023-03-29T00:13:47.303Z,27.6576
2023-03-29T00:14:48.390Z,27.6748
2023-03-29T00:15:49.496Z,27.6686
2023-03-29T00:16:50.615Z,27.6537
2023-03-29T00:17:51.731Z,27.6781
2023-03-29T00:18:52.800Z,27.6603
2023-03-29T00:19:53.936Z,27.6518
2023-03-29T00:20:55.008Z,27.6519
2023-03-29T00:21:56.825Z,27.6407
2023-03-29T00:22:57.205Z,27.6326
2023-03-29T00:23:58.325Z,27.6287
2023-03-29T00:24:59.436Z,27.6256
2023-03-29T00:26:00.521Z,27.6243
2023-03-29T00:27:01.612Z,27.6207
2023-03-29T00:28:02.757Z,27.6108
2023-03-29T00:29:03.811Z,27.6159
2023-03-29T00:30:04.930Z,27.6081
2023-03-29T00:31:06.033Z,27.5944
2023-03-29T00:32:07.125Z,27.5875
2023-03-29T00:33:08.236Z,27.6000
2023-03-29T00:34:09.315Z,27.5958
2023-03-29T00:35:10.433Z,27.5883
2023-03-29T00:36:11.523Z,27.5986
2023-03-29T00:37:12.621Z,27.5735
2023-03-29T00:38:13.734Z,27.5904
2023-03-29T00:39:14.866Z,27.5976
2023-03-29T00:40:16.388Z,27.5976
2023-03-29T00:41:17.019Z,27.6162
2023-03-29T00:42:18.119Z,27.6009
2023-03-29T00:43:19.216Z,27.6128
2023-03-29T00:44:20.334Z,27.5758
2023-03-29T00:45:21.443Z,27.5914
2023-03-29T00:46:22.588Z,27.5916
2023-03-29T00:47:23.728Z,27.5862
2023-03-29T00:48:24.752Z,27.5782
2023-03-29T00:49:25.831Z,27.5885
2023-03-29T00:50:26.962Z,27.5984
2023-03-29T00:51:28.049Z,27.5779
2023-03-29T00:52:29.156Z,27.5741
2023-03-29T00:53:30.275Z,27.5823
2023-03-29T00:54:31.357Z,27.5792
2023-03-29T00:55:32.464Z,27.5901
2023-03-29T00:56:33.577Z,27.5835
2023-03-29T00:57:34.654Z,27.5722
2023-03-29T00:58:35.771Z,27.5833
2023-03-29T00:59:36.867Z,27.5846
2023-03-29T01:00:38.000Z,27.5623
2023-03-29T01:01:39.104Z,27.5722
2023-03-29T01:02:40.262Z,27.5702
2023-03-29T01:03:41.393Z,27.5672
2023-03-29T01:04:42.401Z,27.5493
2023-03-29T01:05:43.498Z,27.5513
2023-03-29T01:06:44.655Z,27.5489
2023-03-29T01:07:45.699Z,27.5342
2023-03-29T01:08:46.795Z,27.5362
2023-03-29T01:09:47.897Z,27.5348
2023-03-29T01:10:49.020Z,27.5231
2023-03-29T01:11:50.093Z,27.5104
2023-03-29T01:12:51.215Z,27.5194
2023-03-29T01:13:52.303Z,27.4988
2023-03-29T01:14:53.419Z,27.4914
2023-03-29T01:15:54.515Z,27.4941
2023-03-29T01:16:55.787Z,27.4819
2023-03-29T01:17:56.745Z,27.4654
2023-03-29T01:18:57.815Z,27.4533
2023-03-29T01:19:58.924Z,27.4641
2023-03-29T01:21:00.193Z,27.4578
2023-03-29T01:22:01.111Z,27.4466
2023-03-29T01:23:02.241Z,27.4242
2023-03-29T01:24:03.322Z,27.4058
2023-03-29T01:25:04.431Z,27.4121
2023-03-29T01:26:05.542Z,27.4085
2023-03-29T01:27:06.635Z,27.4044
2023-03-29T01:28:07.717Z,27.4016
2023-03-29T01:29:08.833Z,27.4061
2023-03-29T01:30:09.921Z,27.3730
2023-03-29T01:31:11.065Z,27.3739
2023-03-29T01:32:12.150Z,27.3773
2023-03-29T01:33:13.265Z,27.3803
2023-03-29T01:34:14.331Z,27.3648
2023-03-29T01:35:15.448Z,27.3544
2023-03-29T01:36:16.884Z,27.3450
2023-03-29T01:37:17.665Z,27.3497
2023-03-29T01:38:18.764Z,27.3402
2023-03-29T01:39:19.861Z,27.3398
2023-03-29T01:40:20.961Z,27.3293
2023-03-29T01:41:23.265Z,27.3203
2023-03-29T01:42:23.156Z,27.3059
2023-03-29T01:43:24.268Z,27.3088
2023-03-29T01:44:25.361Z,27.3169
2023-03-29T01:45:26.486Z,27.2996
2023-03-29T01:46:27.882Z,27.2969
2023-03-29T01:47:28.686Z,27.2791
2023-03-29T01:48:29.775Z,27.2874
2023-03-29T01:49:30.911Z,27.2550
2023-03-29T01:50:31.980Z,27.2774
2023-03-29T01:51:33.098Z,27.2761
2023-03-29T01:52:34.169Z,27.2923
2023-03-29T01:53:35.288Z,27.3005
2023-03-29T01:54:36.380Z,27.2789
2023-03-29T01:55:37.489Z,27.2669
2023-03-29T01:56:38.636Z,27.2614
2023-03-29T01:57:39.684Z,27.2519
2023-03-29T01:58:40.790Z,27.2701
2023-03-29T01:59:41.894Z,27.2644
2023-03-29T02:00:42.985Z,27.2739
2023-03-29T02:01:44.184Z,27.2921
2023-03-29T02:02:45.285Z,27.2939
2023-03-29T02:03:46.350Z,27.2896
2023-03-29T02:04:47.394Z,27.2854
2023-03-29T02:05:48.527Z,27.2966
2023-03-29T02:06:49.630Z,27.2890
2023-03-29T02:07:50.722Z,27.2760
2023-03-29T02:08:51.813Z,27.2796
2023-03-29T02:09:52.933Z,27.3054
2023-03-29T02:10:54.029Z,27.2929
2023-03-29T02:11:55.156Z,27.2801
2023-03-29T02:12:56.238Z,27.2663
2023-03-29T02:13:57.359Z,27.2755
2023-03-29T02:14:58.446Z,27.2890
2023-03-29T02:15:59.639Z,27.2975
2023-03-29T02:17:00.882Z,27.3084
2023-03-29T02:18:01.816Z,27.2709
2023-03-29T02:19:02.878Z,27.2673
2023-03-29T02:20:04.002Z,27.2419
2023-03-29T02:21:05.076Z,27.2318
2023-03-29T02:22:06.226Z,27.2233
2023-03-29T02:23:07.309Z,27.2233
2023-03-29T02:24:08.417Z,27.2266
2023-03-29T02:25:09.515Z,27.1899
2023-03-29T02:26:10.636Z,27.1898
2023-03-29T02:27:11.751Z,27.1673
2023-03-29T02:28:12.850Z,27.1521
2023-03-29T02:29:13.944Z,27.1749
2023-03-29T02:30:15.051Z,27.1839
2023-03-29T02:31:16.203Z,27.1896
2023-03-29T02:32:17.274Z,27.1781
2023-03-29T02:33:18.402Z,27.1929
2023-03-29T02:34:19.478Z,27.2051
2023-03-29T02:35:20.563Z,27.2108
2023-03-29T02:36:21.678Z,27.2154
2023-03-29T02:37:22.792Z,27.2119
2023-03-29T02:38:23.892Z,27.2092
2023-03-29T02:39:24.984Z,27.2260
2023-03-29T02:40:26.135Z,27.2368
2023-03-29T02:41:27.199Z,27.2208
2023-03-29T02:42:28.374Z,27.2339
2023-03-29T02:43:29.408Z,27.2295
2023-03-29T02:44:30.522Z,27.2424
2023-03-29T02:45:31.614Z,27.2386
2023-03-29T02:46:32.778Z,27.2411
2023-03-29T02:47:33.910Z,27.2511
2023-03-29T02:48:34.930Z,27.2447
2023-03-29T02:49:36.027Z,27.2460
2023-03-29T02:50:37.136Z,27.2450
2023-03-29T02:51:38.244Z,27.2248
2023-03-29T02:52:39.380Z,27.2289
2023-03-29T02:53:40.436Z,27.2066
2023-03-29T02:54:41.558Z,27.1913
2023-03-29T02:55:42.656Z,27.1633
2023-03-29T02:56:43.796Z,27.1709
2023-03-29T02:57:44.887Z,27.1842
2023-03-29T02:58:45.966Z,27.1917
2023-03-29T02:59:47.086Z,27.1954
2023-03-29T03:00:48.177Z,27.1905
2023-03-29T03:01:49.316Z,27.2058
2023-03-29T03:02:50.440Z,27.1999
2023-03-29T03:03:51.581Z,27.2108
2023-03-29T03:04:52.628Z,27.2288
2023-03-29T03:05:53.729Z,27.2021
2023-03-29T03:06:54.813Z,27.2165
2023-03-29T03:07:55.937Z,27.2075
2023-03-29T03:08:57.018Z,27.2256
2023-03-29T03:09:58.137Z,27.2221
2023-03-29T03:10:59.325Z,27.2262
2023-03-29T03:12:00.354Z,27.2228
2023-03-29T03:13:01.455Z,27.2259
2023-03-29T03:14:02.561Z,27.2115
2023-03-29T03:15:03.660Z,27.2079
2023-03-29T03:16:04.819Z,27.2370
2023-03-29T03:17:05.855Z,27.2118
2023-03-29T03:18:07.466Z,27.2178
2023-03-29T03:19:08.066Z,27.2227
2023-03-29T03:20:09.178Z,27.2112
2023-03-29T03:21:10.270Z,27.2186
2023-03-29T03:22:11.389Z,27.2254
2023-03-29T03:23:12.478Z,27.2147
2023-03-29T03:24:13.573Z,27.2128
2023-03-29T03:25:14.673Z,27.2354
2023-03-29T03:26:15.789Z,27.2315
2023-03-29T03:27:16.867Z,27.2472
2023-03-29T03:28:18.419Z,27.2226
2023-03-29T03:29:19.079Z,27.2291
2023-03-29T03:30:20.249Z,27.2607
2023-03-29T03:31:21.442Z,27.2290
2023-03-29T03:32:22.458Z,27.2398
2023-03-29T03:33:23.559Z,27.2471
2023-03-29T03:34:24.648Z,27.2543
2023-03-29T03:35:25.762Z,27.2635
2023-03-29T03:36:26.854Z,27.2613
2023-03-29T03:37:27.973Z,27.2803
2023-03-29T03:38:29.063Z,27.2694
2023-03-29T03:39:30.137Z,27.2891
2023-03-29T03:40:31.238Z,27.2798
2023-03-29T03:41:32.329Z,27.2879
2023-03-29T03:42:33.441Z,27.2978
2023-03-29T03:43:34.604Z,27.3073
2023-03-29T03:44:35.648Z,27.3066
2023-03-29T03:45:36.722Z,27.3009
2023-03-29T03:46:37.844Z,27.2966
2023-03-29T03:47:38.967Z,27.3073
2023-03-29T03:48:40.053Z,27.3031
2023-03-29T03:49:41.114Z,27.2843
2023-03-29T03:50:42.237Z,27.2978
2023-03-29T03:51:43.335Z,27.2930
2023-03-29T03:52:44.434Z,27.2924
2023-03-29T03:53:45.545Z,27.2993
2023-03-29T03:54:46.644Z,27.3099
2023-03-29T03:55:47.737Z,27.3113
2023-03-29T03:56:48.884Z,27.2976
2023-03-29T03:57:49.944Z,27.3163
2023-03-29T03:58:51.076Z,27.3282
2023-03-29T03:59:52.150Z,27.3145
2023-03-29T04:00:53.309Z,27.3354
2023-03-29T04:01:54.349Z,27.3288
2023-03-29T04:02:55.555Z,27.3289
2023-03-29T04:03:56.649Z,27.3266
2023-03-29T04:04:57.684Z,27.3277
2023-03-29T04:05:58.774Z,27.3088
2023-03-29T04:06:59.873Z,27.3226
2023-03-29T04:08:00.971Z,27.3303
2023-03-29T04:09:02.119Z,27.3203
2023-03-29T04:10:03.202Z,27.3202
2023-03-29T04:11:04.464Z,27.3343
2023-03-29T04:12:05.371Z,27.3253
2023-03-29T04:13:06.515Z,27.3295
2023-03-29T04:14:07.600Z,27.3381
2023-03-29T04:15:08.717Z,27.3345
2023-03-29T04:16:09.846Z,27.3303
2023-03-29T04:17:10.897Z,27.3134
2023-03-29T04:18:12.034Z,27.3288
2023-03-29T04:19:13.110Z,27.3162
2023-03-29T04:20:14.163Z,27.3239
2023-03-29T04:21:15.298Z,27.3283
2023-03-29T04:22:16.365Z,27.3080
2023-03-29T04:23:17.480Z,27.3079
2023-03-29T04:24:18.582Z,27.3200
2023-03-29T04:25:19.680Z,27.3020
2023-03-29T04:26:20.766Z,27.2937
2023-03-29T04:27:21.884Z,27.2960
2023-03-29T04:28:22.969Z,27.2987
2023-03-29T04:29:24.116Z,27.2891
2023-03-29T04:30:25.192Z,27.2965
2023-03-29T04:31:26.300Z,27.2847
2023-03-29T04:32:27.382Z,27.2743
2023-03-29T04:33:28.473Z,27.2709
2023-03-29T04:34:29.588Z,27.2708
2023-03-29T04:35:30.703Z,27.2658
2023-03-29T04:36:31.765Z,27.2686
2023-03-29T04:37:32.888Z,27.2683
2023-03-29T04:38:33.967Z,27.2553
2023-03-29T04:39:35.136Z,27.2463
2023-03-29T04:40:36.168Z,27.2474
2023-03-29T04:41:37.265Z,27.2323
2023-03-29T04:42:38.378Z,27.2307
2023-03-29T04:43:40.352Z,27.2358
2023-03-29T04:44:40.673Z,27.2474
2023-03-29T04:45:41.709Z,27.2370
2023-03-29T04:46:42.833Z,27.2587
2023-03-29T04:47:43.929Z,27.2550
2023-03-29T04:48:45.001Z,27.2483
2023-03-29T04:49:46.129Z,27.2673
2023-03-29T04:50:47.200Z,27.2611
2023-03-29T04:51:48.309Z,27.2525
2023-03-29T04:52:49.393Z,27.2424
2023-03-29T04:53:50.508Z,27.2457
2023-03-29T04:54:51.619Z,27.2499
2023-03-29T04:55:52.709Z,27.2335
2023-03-29T04:56:53.840Z,27.2295
2023-03-29T04:57:54.906Z,27.2313
2023-03-29T04:58:55.996Z,27.2101
2023-03-29T04:59:57.481Z,27.2409
2023-03-29T05:00:58.199Z,27.2183
2023-03-29T05:01:59.334Z,27.2159
2023-03-29T05:03:00.611Z,27.2075
2023-03-29T05:04:01.568Z,27.2099
2023-03-29T05:05:02.654Z,27.1836
2023-03-29T05:06:03.910Z,27.2016
2023-03-29T05:07:04.979Z,27.1929
2023-03-29T05:08:05.901Z,27.1925
2023-03-29T05:09:06.988Z,27.1940
2023-03-29T05:10:08.119Z,27.1735
2023-03-29T05:11:09.196Z,27.1896
2023-03-29T05:12:10.307Z,27.2099
2023-03-29T05:13:11.396Z,27.1977
2023-03-29T05:14:12.504Z,27.1808
2023-03-29T05:15:13.618Z,27.1809
2023-03-29T05:16:14.770Z,27.1736
2023-03-29T05:17:15.796Z,27.1575
2023-03-29T05:18:16.908Z,27.1551
2023-03-29T05:19:18.003Z,27.1589
2023-03-29T05:20:19.145Z,27.1696
2023-03-29T05:21:20.201Z,27.1618
2023-03-29T05:22:21.313Z,27.1417
2023-03-29T05:23:22.396Z,27.1258
2023-03-29T05:24:23.524Z,27.1368
2023-03-29T05:25:24.623Z,27.1284
2023-03-29T05:26:25.741Z,27.1473
2023-03-29T05:27:26.789Z,27.1397
2023-03-29T05:28:27.914Z,27.1344
2023-03-29T05:29:29.014Z,27.1361
2023-03-29T05:30:30.482Z,27.1292
2023-03-29T05:31:31.252Z,27.1294
2023-03-29T05:32:32.422Z,27.1329
2023-03-29T05:33:33.404Z,27.1249
2023-03-29T05:34:34.551Z,27.1270
2023-03-29T05:35:35.649Z,27.1079
2023-03-29T05:36:36.731Z,27.1078
2023-03-29T05:37:37.830Z,27.1012
2023-03-29T05:38:38.938Z,27.1057
2023-03-29T05:39:40.022Z,27.1154
2023-03-29T05:40:41.176Z,27.1302
2023-03-29T05:41:42.227Z,27.1201
2023-03-29T05:42:43.356Z,27.1161
2023-03-29T05:43:44.421Z,27.1197
2023-03-29T05:44:45.538Z,27.1181
2023-03-29T05:45:46.741Z,27.1195
2023-03-29T05:46:47.744Z,27.1145
2023-03-29T05:47:48.873Z,27.1361
2023-03-29T05:48:49.958Z,27.1131
2023-03-29T05:49:51.056Z,27.1160
2023-03-29T05:50:52.146Z,27.1375
2023-03-29T05:51:53.226Z,27.1206
2023-03-29T05:52:54.356Z,27.1411
2023-03-29T05:53:55.452Z,27.1268
2023-03-29T05:54:56.552Z,27.1355
2023-03-29T05:55:57.647Z,27.1354
2023-03-29T05:56:58.778Z,27.1294
2023-03-29T05:57:59.850Z,27.1215
2023-03-29T05:59:00.954Z,27.1370
2023-03-29T06:00:02.085Z,27.1269
2023-03-29T06:01:03.345Z,27.1332
2023-03-29T06:02:04.243Z,27.1305
2023-03-29T06:03:17.534Z,27.1403
2023-03-29T06:04:07.495Z,27.1408
2023-03-29T06:05:07.606Z,27.1209
2023-03-29T06:06:08.662Z,27.1512
2023-03-29T06:07:09.759Z,27.1341
2023-03-29T06:08:10.838Z,27.1285
2023-03-29T06:09:11.972Z,27.1403
2023-03-29T06:10:13.068Z,27.1314
2023-03-29T06:11:14.201Z,27.1453
2023-03-29T06:12:15.270Z,27.2070
2023-03-29T06:13:16.397Z,27.2918
2023-03-29T06:14:17.477Z,27.3761
2023-03-29T06:15:18.595Z,27.5546
2023-03-29T06:16:19.979Z,27.7781
2023-03-29T06:17:20.851Z,28.1498
2023-03-29T06:18:21.895Z,28.4927
2023-03-29T06:19:23.005Z,28.8423
2023-03-29T06:20:24.096Z,29.2270
2023-03-29T06:21:25.219Z,29.5835
2023-03-29T06:22:26.285Z,29.8164
2023-03-29T06:23:27.405Z,30.0694
2023-03-29T06:24:28.508Z,30.3069
2023-03-29T06:25:29.634Z,30.5531
2023-03-29T06:26:30.725Z,30.7440
2023-03-29T06:27:31.851Z,30.9421
2023-03-29T06:28:32.961Z,31.0830
2023-03-29T06:29:34.047Z,31.2809
2023-03-29T06:30:35.136Z,31.4715
2023-03-29T06:31:36.374Z,31.4960
2023-03-29T06:32:37.359Z,31.4055
2023-03-29T06:33:38.454Z,31.3518
2023-03-29T06:34:39.546Z,31.2857
2023-03-29T06:35:40.675Z,31.2275
2023-03-29T06:36:41.758Z,31.1986
2023-03-29T06:37:42.854Z,31.2785
2023-03-29T06:38:43.975Z,31.4125
2023-03-29T06:39:45.079Z,32.3679
2023-03-29T06:40:46.162Z,32.6089
2023-03-29T06:41:47.296Z,32.6090
2023-03-29T06:42:48.414Z,32.5786
2023-03-29T06:43:49.510Z,32.5544
2023-03-29T06:44:50.572Z,32.5203
2023-03-29T06:45:51.695Z,32.4262
2023-03-29T06:46:52.866Z,32.2759
2023-03-29T06:47:53.985Z,32.1029
2023-03-29T06:48:55.001Z,31.8375
2023-03-29T06:49:56.105Z,31.5222
2023-03-29T06:50:57.179Z,31.2467
2023-03-29T06:51:58.345Z,31.0553
2023-03-29T06:52:59.389Z,30.8931
2023-03-29T06:54:00.510Z,30.8086
2023-03-29T06:55:01.687Z,30.8300
2023-03-29T06:56:02.705Z,30.9211
2023-03-29T06:57:03.832Z,30.9655
2023-03-29T06:58:04.898Z,31.0221
2023-03-29T06:59:06.000Z,31.0712
2023-03-29T07:00:07.103Z,31.0911
2023-03-29T07:01:08.412Z,31.1548
2023-03-29T07:02:09.420Z,31.2060
2023-03-29T07:03:10.423Z,31.2504
2023-03-29T07:04:11.531Z,31.2904
2023-03-29T07:05:12.578Z,31.3034
2023-03-29T07:06:13.703Z,31.2839
2023-03-29T07:07:14.809Z,31.3060
2023-03-29T07:08:15.882Z,31.3498
2023-03-29T07:09:19.347Z,31.4364
2023-03-29T07:10:18.086Z,31.4162
2023-03-29T07:11:19.169Z,31.3425
2023-03-29T07:12:20.496Z,31.2990
2023-03-29T07:13:21.356Z,31.2882
2023-03-29T07:14:22.492Z,31.2835
2023-03-29T07:15:23.563Z,31.2643
2023-03-29T07:16:24.763Z,31.2910
2023-03-29T07:17:25.811Z,31.3423
2023-03-29T07:18:26.852Z,31.3922
2023-03-29T07:19:27.962Z,31.3974
2023-03-29T07:20:29.057Z,31.3916
2023-03-29T07:21:30.169Z,31.3688
2023-03-29T07:22:31.408Z,31.3959
2023-03-29T07:23:32.362Z,31.4014
2023-03-29T07:24:33.456Z,31.4299
2023-03-29T07:25:34.570Z,31.4164
2023-03-29T07:26:35.637Z,31.4154
2023-03-29T07:27:36.784Z,31.4495
2023-03-29T07:28:37.848Z,31.4438
2023-03-29T07:29:38.975Z,31.5112
2023-03-29T07:30:40.031Z,31.4997
2023-03-29T07:31:41.210Z,31.4889
2023-03-29T07:32:42.403Z,31.5082
2023-03-29T07:33:43.607Z,31.4859
2023-03-29T07:34:44.519Z,31.5243
2023-03-29T07:35:45.645Z,31.5155
2023-03-29T07:36:46.689Z,31.5373
2023-03-29T07:37:48.015Z,31.5569
2023-03-29T07:38:48.910Z,31.5687
2023-03-29T07:39:49.994Z,31.5593
2023-03-29T07:40:51.071Z,31.5735
2023-03-29T07:41:52.188Z,31.5713
2023-03-29T07:42:53.291Z,31.5680
2023-03-29T07:43:54.382Z,31.5627
2023-03-29T07:44:55.469Z,31.5634
2023-03-29T07:45:56.608Z,31.6264
2023-03-29T07:46:57.650Z,31.6237
2023-03-29T07:47:59.050Z,31.6078
2023-03-29T07:48:59.859Z,31.6061
2023-03-29T07:50:00.977Z,31.5902
2023-03-29T07:51:02.267Z,31.5788
2023-03-29T07:52:03.152Z,31.5508
2023-03-29T07:53:04.306Z,31.5308
2023-03-29T07:54:05.417Z,31.5192
2023-03-29T07:55:06.453Z,31.4869
2023-03-29T07:56:07.553Z,31.5066
2023-03-29T07:57:08.722Z,31.4683
2023-03-29T07:58:10.018Z,31.4853
2023-03-29T07:59:10.888Z,31.4510
2023-03-29T08:00:11.962Z,31.4611
2023-03-29T08:01:15.372Z,31.4606
2023-03-29T08:02:14.194Z,31.4568
2023-03-29T08:03:15.659Z,31.4423
2023-03-29T08:04:16.438Z,31.4733
2023-03-29T08:05:23.272Z,31.4640
2023-03-29T08:06:19.561Z,31.5594
2023-03-29T08:07:19.650Z,31.5165
2023-03-29T08:08:20.772Z,31.5101
2023-03-29T08:09:21.908Z,31.4736
2023-03-29T08:10:22.989Z,31.4329
2023-03-29T08:11:24.045Z,31.3993
2023-03-29T08:12:25.176Z,31.4114
2023-03-29T08:13:26.279Z,31.4404
2023-03-29T08:14:27.359Z,31.4351
2023-03-29T08:15:28.447Z,31.4019
2023-03-29T08:16:29.659Z,31.3817
2023-03-29T08:17:30.716Z,31.3754
2023-03-29T08:18:34.127Z,31.4143
2023-03-29T08:19:32.860Z,31.4465
2023-03-29T08:20:33.965Z,31.5329
2023-03-29T08:21:35.068Z,31.6291
2023-03-29T08:22:36.198Z,31.7078
2023-03-29T08:23:37.273Z,31.8304
2023-03-29T08:24:38.400Z,31.9418
2023-03-29T08:25:39.462Z,32.0158
2023-03-29T08:26:40.578Z,32.0593
2023-03-29T08:27:41.686Z,32.0719
2023-03-29T08:28:43.118Z,32.1117
2023-03-29T08:29:43.877Z,32.1525
2023-03-29T08:30:45.044Z,32.1522
2023-03-29T08:31:46.064Z,32.1724
2023-03-29T08:32:49.893Z,32.1558
2023-03-29T08:33:48.530Z,32.1548
2023-03-29T08:34:49.391Z,32.1252
2023-03-29T08:35:50.532Z,32.1698
2023-03-29T08:36:51.710Z,32.1619
2023-03-29T08:37:52.847Z,32.1970
2023-03-29T08:38:53.803Z,32.1907
2023-03-29T08:39:54.863Z,32.1801
2023-03-29T08:40:55.981Z,32.1614
2023-03-29T08:41:57.073Z,32.1565
2023-03-29T08:42:58.174Z,32.1650
2023-03-29T08:43:59.282Z,32.1790
2023-03-29T08:45:00.383Z,32.1943
2023-03-29T08:46:01.513Z,32.2106
2023-03-29T08:47:02.611Z,32.2460
2023-03-29T08:48:03.708Z,32.2325
2023-03-29T08:49:04.864Z,32.2177
2023-03-29T08:50:05.931Z,32.2724
2023-03-29T08:51:09.432Z,32.2444
2023-03-29T08:52:08.209Z,32.2259
2023-03-29T08:53:09.185Z,32.2454
2023-03-29T08:54:10.295Z,32.2449
2023-03-29T08:55:11.354Z,32.2799
2023-03-29T08:56:12.454Z,32.2201
2023-03-29T08:57:13.601Z,32.2239
2023-03-29T08:58:14.642Z,32.1776
2023-03-29T08:59:24.424Z,32.1718
2023-03-29T09:00:17.823Z,32.2004
2023-03-29T09:01:18.015Z,32.1798
2023-03-29T09:02:19.270Z,32.1889
2023-03-29T09:03:20.220Z,32.1938
2023-03-29T09:04:21.245Z,32.1634
2023-03-29T09:05:22.350Z,32.1505
2023-03-29T09:06:23.422Z,32.1502
2023-03-29T09:07:26.544Z,32.1469
2023-03-29T09:08:25.636Z,32.1401
2023-03-29T09:09:26.747Z,32.1731
2023-03-29T09:10:27.830Z,32.1333
2023-03-29T09:11:28.929Z,32.1209
2023-03-29T09:12:30.062Z,32.1184
2023-03-29T09:13:31.166Z,32.1043
2023-03-29T09:14:32.250Z,32.1168
2023-03-29T09:15:33.333Z,32.0909
2023-03-29T09:16:34.538Z,32.0468
2023-03-29T09:17:35.595Z,32.0221
2023-03-29T09:18:36.609Z,32.0019
2023-03-29T09:19:37.748Z,31.9802
2023-03-29T09:20:38.819Z,31.9468
2023-03-29T09:21:39.930Z,31.9176
2023-03-29T09:22:41.093Z,31.9072
2023-03-29T09:23:42.131Z,31.8872
2023-03-29T09:24:43.231Z,31.8621
2023-03-29T09:25:53.179Z,31.8326
2023-03-29T09:26:46.440Z,31.8661
2023-03-29T09:27:46.520Z,31.8653
2023-03-29T09:28:47.626Z,31.8342
2023-03-29T09:29:48.747Z,31.7929
2023-03-29T09:30:49.809Z,31.7539
2023-03-29T09:31:50.952Z,31.7446
2023-03-29T09:32:52.137Z,31.7047
2023-03-29T09:33:53.113Z,31.7183
2023-03-29T09:34:54.219Z,31.7151
2023-03-29T09:35:55.333Z,31.7340
2023-03-29T09:36:56.414Z,31.7201
2023-03-29T09:37:57.510Z,31.7516
2023-03-29T09:38:58.601Z,31.7901
2023-03-29T09:39:59.723Z,31.7958
2023-03-29T09:41:00.911Z,31.8115
2023-03-29T09:42:01.891Z,31.8115
2023-03-29T09:43:02.979Z,31.8083
2023-03-29T09:44:04.083Z,31.7989
2023-03-29T09:45:05.193Z,31.8363
2023-03-29T09:46:06.320Z,31.8579
2023-03-29T09:47:07.402Z,31.8898
2023-03-29T09:48:08.529Z,31.9133
2023-03-29T09:49:09.603Z,32.0047
2023-03-29T09:50:19.820Z,32.0901
2023-03-29T09:51:12.775Z,32.1492
2023-03-29T09:52:12.940Z,32.1790
2023-03-29T09:53:13.980Z,32.2384
2023-03-29T09:54:15.093Z,32.2530
2023-03-29T09:55:16.234Z,32.2242
2023-03-29T09:56:17.292Z,32.2237
2023-03-29T09:57:18.437Z,32.2519
2023-03-29T09:58:19.524Z,32.2978
2023-03-29T09:59:20.570Z,32.3462
2023-03-29T10:00:21.713Z,32.3812
2023-03-29T10:01:22.862Z,32.4068
2023-03-29T10:02:23.942Z,32.4654
2023-03-29T10:03:24.987Z,32.4555
2023-03-29T10:04:26.200Z,32.4584
2023-03-29T10:05:27.571Z,32.4496
2023-03-29T10:06:28.300Z,32.4737
2023-03-29T10:07:29.391Z,32.4827
2023-03-29T10:08:30.511Z,32.4766
2023-03-29T10:09:31.581Z,32.4761
2023-03-29T10:10:32.722Z,32.4895
2023-03-29T10:11:33.801Z,32.4752
2023-03-29T10:12:34.880Z,32.4588
2023-03-29T10:13:35.975Z,32.4721
2023-03-29T10:14:37.149Z,32.4846
2023-03-29T10:15:38.180Z,32.4770
2023-03-29T10:16:39.303Z,32.5232
2023-03-29T10:17:40.435Z,32.4836
2023-03-29T10:18:41.534Z,32.4039
2023-03-29T10:19:42.551Z,32.3340
2023-03-29T10:20:43.682Z,32.3528
2023-03-29T10:21:44.757Z,32.3516
2023-03-29T10:22:45.870Z,32.3605
2023-03-29T10:23:47.087Z,32.3651
2023-03-29T10:24:48.048Z,32.3530
2023-03-29T10:25:49.165Z,32.3333
2023-03-29T10:26:50.246Z,32.3199
2023-03-29T10:27:51.336Z,32.2904
2023-03-29T10:28:52.783Z,32.2563
2023-03-29T10:29:53.523Z,32.2218
2023-03-29T10:30:54.651Z,32.2187
2023-03-29T10:31:55.781Z,32.1297
2023-03-29T10:32:56.931Z,32.1145
2023-03-29T10:33:57.908Z,32.0749
2023-03-29T10:34:59.021Z,32.0004
2023-03-29T10:36:00.617Z,31.9539
2023-03-29T10:37:01.407Z,31.9149
2023-03-29T10:38:02.276Z,31.8776
2023-03-29T10:39:05.771Z,31.8598
2023-03-29T10:40:04.493Z,31.8537
2023-03-29T10:41:05.602Z,31.8320
2023-03-29T10:42:06.667Z,31.7976
2023-03-29T10:43:07.778Z,31.7728
2023-03-29T10:44:08.869Z,31.7334
2023-03-29T10:45:09.974Z,31.6958
2023-03-29T10:46:11.159Z,31.6457
2023-03-29T10:47:12.175Z,31.6133
2023-03-29T10:48:13.268Z,31.8229
2023-03-29T10:49:14.375Z,31.8831
2023-03-29T10:50:15.484Z,31.9422
2023-03-29T10:51:16.644Z,32.0240
2023-03-29T10:52:17.638Z,32.0099
2023-03-29T10:53:18.744Z,31.9612
2023-03-29T10:54:19.817Z,31.8626
2023-03-29T10:55:20.924Z,31.7574
2023-03-29T10:56:22.028Z,31.7283
2023-03-29T10:57:23.179Z,31.7827
2023-03-29T10:58:24.191Z,31.8587
2023-03-29T10:59:25.292Z,31.9773
2023-03-29T11:00:26.397Z,32.0033
2023-03-29T11:01:27.583Z,32.1247
2023-03-29T11:02:28.640Z,32.1434
2023-03-29T11:03:29.752Z,32.1896
2023-03-29T11:04:30.796Z,32.1254
2023-03-29T11:05:31.897Z,32.1380
2023-03-29T11:06:32.997Z,32.2700
2023-03-29T11:07:34.113Z,32.3315
2023-03-29T11:08:35.172Z,32.3295
2023-03-29T11:09:36.288Z,32.3490
2023-03-29T11:10:37.373Z,32.3280
2023-03-29T11:11:38.570Z,32.3535
2023-03-29T11:12:39.569Z,32.3312
2023-03-29T11:13:40.676Z,32.3313
2023-03-29T11:14:41.761Z,32.3676
2023-03-29T11:15:42.905Z,32.3367
2023-03-29T11:16:44.087Z,32.3292
2023-03-29T11:17:45.122Z,32.3593
2023-03-29T11:18:46.147Z,32.4149
2023-03-29T11:19:47.438Z,32.5097
2023-03-29T11:20:48.364Z,32.4861
2023-03-29T11:21:49.575Z,32.4387
2023-03-29T11:22:50.552Z,32.3646
2023-03-29T11:23:51.648Z,32.3026
2023-03-29T11:24:52.722Z,32.2002
2023-03-29T11:25:53.830Z,32.1677
2023-03-29T11:26:54.933Z,32.2143
2023-03-29T11:27:56.023Z,32.2140
2023-03-29T11:28:57.117Z,32.1501
2023-03-29T11:29:58.244Z,32.1648
2023-03-29T11:30:59.348Z,32.1763
2023-03-29T11:32:00.588Z,32.1820
2023-03-29T11:33:01.641Z,32.2227
2023-03-29T11:34:02.692Z,32.2228
2023-03-29T11:35:03.784Z,32.2566
2023-03-29T11:36:05.011Z,32.2950
2023-03-29T11:37:06.020Z,32.3211
2023-03-29T11:38:07.067Z,32.3161
2023-03-29T11:39:08.176Z,32.3163
2023-03-29T11:40:09.273Z,32.2923
2023-03-29T11:41:10.382Z,32.2769
2023-03-29T11:42:11.486Z,32.2658
2023-03-29T11:43:12.587Z,32.2499
2023-03-29T11:44:13.656Z,32.2817
2023-03-29T11:45:14.790Z,32.2869
2023-03-29T11:46:15.955Z,32.3504
2023-03-29T11:47:16.972Z,32.2694
2023-03-29T11:48:18.071Z,32.2158
2023-03-29T11:49:19.170Z,32.1877
2023-03-29T11:50:20.263Z,32.1671
2023-03-29T11:51:21.377Z,32.1833
2023-03-29T11:52:22.509Z,32.1664
2023-03-29T11:53:23.558Z,32.2160
2023-03-29T11:54:24.667Z,32.2436
2023-03-29T11:55:25.757Z,32.2151
2023-03-29T11:56:26.859Z,32.1998
2023-03-29T11:57:28.021Z,32.1895
2023-03-29T11:58:29.578Z,32.1711
2023-03-29T11:59:30.176Z,32.2702
2023-03-29T12:00:31.272Z,32.2747
2023-03-29T12:01:32.370Z,32.2957
2023-03-29T12:02:33.559Z,32.2994
2023-03-29T12:03:34.617Z,32.3066
2023-03-29T12:04:35.655Z,32.2994
2023-03-29T12:05:36.773Z,32.3003
2023-03-29T12:06:37.954Z,32.2854
2023-03-29T12:07:38.982Z,32.2706
2023-03-29T12:08:40.057Z,32.2409
2023-03-29T12:09:41.164Z,32.2532
2023-03-29T12:10:42.255Z,32.2782
2023-03-29T12:11:43.376Z,32.2572
2023-03-29T12:12:44.500Z,32.2346
2023-03-29T12:13:45.581Z,32.2460
2023-03-29T12:14:46.660Z,32.2928
2023-03-29T12:15:47.789Z,32.3618
2023-03-29T12:16:48.969Z,32.5267
2023-03-29T12:17:50.013Z,32.5789
2023-03-29T12:18:51.057Z,32.7279